Terminal Aerodrome Forecast
Issued by NWS

Home | Current Version | Previous Version | Text Only | Print | Product List | Glossary On
Versions: 1 2 3 4 5 6 7 8 9 10 11 12
000
FTUS44 KMAF 042326
TAFHOB
TAF
KHOB 042326Z 0500/0524 13008G15KT P6SM SCT250
     FM050100 12007KT P6SM SCT250
     FM051500 13010KT P6SM SCT100 SCT250=

USA.gov is the U.S. government's official web portal to all federal, state and local government web resources and services.